sensor_id;sensor_type;location;lat;lon;timestamp;P1;durP1;ratioP1;P2;durP2;ratioP2
59649;SDS011;46162;57.568;25.814;2023-07-02T00:00:29;5.85;;;2.22;;
59649;SDS011;46162;57.568;25.814;2023-07-02T00:02:58;8.30;;;2.72;;
59649;SDS011;46162;57.568;25.814;2023-07-02T00:05:29;5.65;;;2.28;;
59649;SDS011;46162;57.568;25.814;2023-07-02T00:07:57;8.30;;;2.33;;
59649;SDS011;46162;57.568;25.814;2023-07-02T00:10:26;8.93;;;2.00;;
59649;SDS011;46162;57.568;25.814;2023-07-02T00:12:56;6.63;;;1.88;;
59649;SDS011;46162;57.568;25.814;2023-07-02T00:15:25;8.40;;;2.20;;
59649;SDS011;46162;57.568;25.814;2023-07-02T00:17:53;7.22;;;2.28;;
59649;SDS011;46162;57.568;25.814;2023-07-02T00:20:24;7.93;;;2.20;;
59649;SDS011;46162;57.568;25.814;2023-07-02T00:22:52;11.40;;;2.05;;
59649;SDS011;46162;57.568;25.814;2023-07-02T00:25:21;8.43;;;2.30;;
59649;SDS011;46162;57.568;25.814;2023-07-02T00:27:50;9.57;;;1.95;;
59649;SDS011;46162;57.568;25.814;2023-07-02T00:30:20;5.10;;;1.50;;
59649;SDS011;46162;57.568;25.814;2023-07-02T00:32:49;8.98;;;2.15;;
59649;SDS011;46162;57.568;25.814;2023-07-02T00:35:17;7.95;;;2.05;;
59649;SDS011;46162;57.568;25.814;2023-07-02T00:37:46;9.10;;;2.30;;
59649;SDS011;46162;57.568;25.814;2023-07-02T00:40:14;8.80;;;2.00;;
59649;SDS011;46162;57.568;25.814;2023-07-02T00:42:43;6.53;;;1.75;;
59649;SDS011;46162;57.568;25.814;2023-07-02T00:45:11;6.93;;;2.17;;
59649;SDS011;46162;57.568;25.814;2023-07-02T00:47:41;6.70;;;2.00;;
59649;SDS011;46162;57.568;25.814;2023-07-02T00:50:11;6.93;;;2.00;;
59649;SDS011;46162;57.568;25.814;2023-07-02T00:52:40;7.20;;;1.77;;
59649;SDS011;46162;57.568;25.814;2023-07-02T00:55:08;6.78;;;1.50;;
59649;SDS011;46162;57.568;25.814;2023-07-02T00:57:37;7.03;;;1.67;;
59649;SDS011;46162;57.568;25.814;2023-07-02T01:00:08;6.43;;;2.30;;
59649;SDS011;46162;57.568;25.814;2023-07-02T01:02:37;8.50;;;2.20;;
59649;SDS011;46162;57.568;25.814;2023-07-02T01:05:15;5.65;;;1.90;;
59649;SDS011;46162;57.568;25.814;2023-07-02T01:07:44;6.63;;;1.77;;
59649;SDS011;46162;57.568;25.814;2023-07-02T01:10:13;5.85;;;2.10;;
59649;SDS011;46162;57.568;25.814;2023-07-02T01:12:41;7.20;;;2.00;;
59649;SDS011;46162;57.568;25.814;2023-07-02T01:15:10;6.07;;;1.58;;
59649;SDS011;46162;57.568;25.814;2023-07-02T01:17:42;9.32;;;1.98;;
59649;SDS011;46162;57.568;25.814;2023-07-02T01:20:15;7.78;;;1.80;;
59649;SDS011;46162;57.568;25.814;2023-07-02T01:22:44;5.93;;;1.88;;
59649;SDS011;46162;57.568;25.814;2023-07-02T01:25:13;6.60;;;2.35;;
59649;SDS011;46162;57.568;25.814;2023-07-02T01:30:12;6.75;;;2.22;;
59649;SDS011;46162;57.568;25.814;2023-07-02T01:32:41;5.78;;;1.92;;
59649;SDS011;46162;57.568;25.814;2023-07-02T01:35:10;6.97;;;1.90;;
59649;SDS011;46162;57.568;25.814;2023-07-02T01:37:40;6.35;;;1.80;;
59649;SDS011;46162;57.568;25.814;2023-07-02T01:40:09;8.27;;;1.52;;
59649;SDS011;46162;57.568;25.814;2023-07-02T01:42:38;5.35;;;1.98;;
59649;SDS011;46162;57.568;25.814;2023-07-02T01:45:07;6.70;;;2.00;;
59649;SDS011;46162;57.568;25.814;2023-07-02T01:47:36;7.57;;;1.77;;
59649;SDS011;46162;57.568;25.814;2023-07-02T01:50:05;8.55;;;1.98;;
59649;SDS011;46162;57.568;25.814;2023-07-02T01:52:35;11.63;;;1.95;;
59649;SDS011;46162;57.568;25.814;2023-07-02T01:55:05;4.70;;;1.70;;
59649;SDS011;46162;57.568;25.814;2023-07-02T01:57:34;6.95;;;1.70;;
59649;SDS011;46162;57.568;25.814;2023-07-02T02:00:03;5.18;;;1.73;;
59649;SDS011;46162;57.568;25.814;2023-07-02T02:02:47;5.43;;;1.73;;
59649;SDS011;46162;57.568;25.814;2023-07-02T02:05:17;4.85;;;1.50;;
59649;SDS011;46162;57.568;25.814;2023-07-02T02:07:47;6.60;;;1.45;;
59649;SDS011;46162;57.568;25.814;2023-07-02T02:10:19;4.78;;;1.55;;
59649;SDS011;46162;57.568;25.814;2023-07-02T02:12:48;11.15;;;1.67;;
59649;SDS011;46162;57.568;25.814;2023-07-02T02:15:17;5.38;;;1.33;;
59649;SDS011;46162;57.568;25.814;2023-07-02T02:17:46;5.93;;;1.42;;
59649;SDS011;46162;57.568;25.814;2023-07-02T02:20:15;6.20;;;1.60;;
59649;SDS011;46162;57.568;25.814;2023-07-02T02:22:43;7.80;;;1.48;;
59649;SDS011;46162;57.568;25.814;2023-07-02T02:25:12;7.03;;;1.42;;
59649;SDS011;46162;57.568;25.814;2023-07-02T02:27:42;5.13;;;1.20;;
59649;SDS011;46162;57.568;25.814;2023-07-02T02:30:11;7.13;;;1.55;;
59649;SDS011;46162;57.568;25.814;2023-07-02T02:32:40;7.22;;;1.35;;
59649;SDS011;46162;57.568;25.814;2023-07-02T02:35:10;5.50;;;1.20;;
59649;SDS011;46162;57.568;25.814;2023-07-02T02:37:39;3.45;;;1.23;;
59649;SDS011;46162;57.568;25.814;2023-07-02T02:40:08;6.97;;;1.30;;
59649;SDS011;46162;57.568;25.814;2023-07-02T02:42:38;3.97;;;1.20;;
59649;SDS011;46162;57.568;25.814;2023-07-02T02:45:09;5.38;;;1.17;;
59649;SDS011;46162;57.568;25.814;2023-07-02T02:47:38;8.40;;;1.27;;
59649;SDS011;46162;57.568;25.814;2023-07-02T02:50:07;5.65;;;1.10;;
59649;SDS011;46162;57.568;25.814;2023-07-02T02:52:37;4.95;;;1.15;;
59649;SDS011;46162;57.568;25.814;2023-07-02T02:55:06;4.68;;;1.17;;
59649;SDS011;46162;57.568;25.814;2023-07-02T02:57:35;4.75;;;1.27;;
59649;SDS011;46162;57.568;25.814;2023-07-02T03:00:04;6.68;;;1.00;;
59649;SDS011;46162;57.568;25.814;2023-07-02T03:02:37;5.60;;;1.10;;
59649;SDS011;46162;57.568;25.814;2023-07-02T03:05:07;9.10;;;1.42;;
59649;SDS011;46162;57.568;25.814;2023-07-02T03:07:36;4.80;;;1.55;;
59649;SDS011;46162;57.568;25.814;2023-07-02T03:10:05;6.28;;;1.02;;
59649;SDS011;46162;57.568;25.814;2023-07-02T03:12:35;5.82;;;1.15;;
59649;SDS011;46162;57.568;25.814;2023-07-02T03:15:04;7.20;;;1.10;;
59649;SDS011;46162;57.568;25.814;2023-07-02T03:17:34;7.70;;;1.30;;
59649;SDS011;46162;57.568;25.814;2023-07-02T03:20:06;8.13;;;1.20;;
59649;SDS011;46162;57.568;25.814;2023-07-02T03:22:35;9.18;;;1.48;;
59649;SDS011;46162;57.568;25.814;2023-07-02T03:25:04;6.30;;;1.15;;
59649;SDS011;46162;57.568;25.814;2023-07-02T03:27:33;5.32;;;1.08;;
59649;SDS011;46162;57.568;25.814;2023-07-02T03:30:02;5.53;;;1.05;;
59649;SDS011;46162;57.568;25.814;2023-07-02T03:32:32;5.43;;;0.90;;
59649;SDS011;46162;57.568;25.814;2023-07-02T03:35:01;5.47;;;1.25;;
59649;SDS011;46162;57.568;25.814;2023-07-02T03:37:31;9.88;;;1.02;;
59649;SDS011;46162;57.568;25.814;2023-07-02T03:39:59;4.75;;;1.00;;
59649;SDS011;46162;57.568;25.814;2023-07-02T03:42:28;8.63;;;1.70;;
59649;SDS011;46162;57.568;25.814;2023-07-02T03:44:57;4.65;;;0.90;;
59649;SDS011;46162;57.568;25.814;2023-07-02T03:47:25;4.82;;;0.80;;
59649;SDS011;46162;57.568;25.814;2023-07-02T03:49:54;6.18;;;0.80;;
59649;SDS011;46162;57.568;25.814;2023-07-02T03:52:23;5.18;;;0.80;;
59649;SDS011;46162;57.568;25.814;2023-07-02T03:54:53;4.60;;;0.82;;
59649;SDS011;46162;57.568;25.814;2023-07-02T03:57:22;6.32;;;1.00;;
59649;SDS011;46162;57.568;25.814;2023-07-02T03:59:51;5.30;;;0.75;;
59649;SDS011;46162;57.568;25.814;2023-07-02T04:02:19;5.93;;;1.13;;
59649;SDS011;46162;57.568;25.814;2023-07-02T04:04:48;6.65;;;0.82;;
59649;SDS011;46162;57.568;25.814;2023-07-02T04:07:17;4.75;;;0.77;;
59649;SDS011;46162;57.568;25.814;2023-07-02T04:09:45;8.77;;;0.85;;
59649;SDS011;46162;57.568;25.814;2023-07-02T04:12:16;4.18;;;0.90;;
59649;SDS011;46162;57.568;25.814;2023-07-02T04:14:44;4.38;;;0.80;;
59649;SDS011;46162;57.568;25.814;2023-07-02T04:17:13;7.05;;;0.90;;
59649;SDS011;46162;57.568;25.814;2023-07-02T04:19:42;4.03;;;0.90;;
59649;SDS011;46162;57.568;25.814;2023-07-02T04:22:10;5.10;;;0.60;;
59649;SDS011;46162;57.568;25.814;2023-07-02T04:24:39;4.72;;;0.60;;
59649;SDS011;46162;57.568;25.814;2023-07-02T04:30:01;5.75;;;0.65;;
59649;SDS011;46162;57.568;25.814;2023-07-02T04:32:32;6.18;;;1.02;;
59649;SDS011;46162;57.568;25.814;2023-07-02T04:35:01;3.88;;;0.63;;
59649;SDS011;46162;57.568;25.814;2023-07-02T04:37:30;5.45;;;0.93;;
59649;SDS011;46162;57.568;25.814;2023-07-02T04:39:59;6.80;;;0.60;;
59649;SDS011;46162;57.568;25.814;2023-07-02T04:42:31;6.90;;;0.93;;
59649;SDS011;46162;57.568;25.814;2023-07-02T04:45:07;5.07;;;0.77;;
59649;SDS011;46162;57.568;25.814;2023-07-02T04:47:36;5.55;;;1.00;;
59649;SDS011;46162;57.568;25.814;2023-07-02T04:50:05;5.30;;;0.80;;
59649;SDS011;46162;57.568;25.814;2023-07-02T04:52:35;4.75;;;0.70;;
59649;SDS011;46162;57.568;25.814;2023-07-02T04:55:03;5.25;;;0.65;;
59649;SDS011;46162;57.568;25.814;2023-07-02T04:57:33;5.20;;;0.73;;
59649;SDS011;46162;57.568;25.814;2023-07-02T05:00:02;5.82;;;1.08;;
59649;SDS011;46162;57.568;25.814;2023-07-02T05:02:34;4.93;;;0.90;;
59649;SDS011;46162;57.568;25.814;2023-07-02T05:05:03;3.53;;;0.82;;
59649;SDS011;46162;57.568;25.814;2023-07-02T05:07:32;7.22;;;0.73;;
59649;SDS011;46162;57.568;25.814;2023-07-02T05:10:00;5.40;;;0.85;;
59649;SDS011;46162;57.568;25.814;2023-07-02T05:12:30;5.25;;;1.38;;
59649;SDS011;46162;57.568;25.814;2023-07-02T05:14:58;5.50;;;1.13;;
59649;SDS011;46162;57.568;25.814;2023-07-02T05:17:27;3.30;;;1.13;;
59649;SDS011;46162;57.568;25.814;2023-07-02T05:19:57;5.57;;;1.48;;
59649;SDS011;46162;57.568;25.814;2023-07-02T05:22:26;5.93;;;1.00;;
59649;SDS011;46162;57.568;25.814;2023-07-02T05:24:55;4.35;;;0.93;;
59649;SDS011;46162;57.568;25.814;2023-07-02T05:27:23;4.65;;;1.10;;
59649;SDS011;46162;57.568;25.814;2023-07-02T05:29:52;6.15;;;1.00;;
59649;SDS011;46162;57.568;25.814;2023-07-02T05:32:21;5.10;;;1.10;;
59649;SDS011;46162;57.568;25.814;2023-07-02T05:34:50;3.97;;;1.02;;
59649;SDS011;46162;57.568;25.814;2023-07-02T05:37:20;6.03;;;0.98;;
59649;SDS011;46162;57.568;25.814;2023-07-02T05:39:49;5.03;;;1.00;;
59649;SDS011;46162;57.568;25.814;2023-07-02T05:42:18;5.30;;;0.70;;
59649;SDS011;46162;57.568;25.814;2023-07-02T05:44:46;5.43;;;1.17;;
59649;SDS011;46162;57.568;25.814;2023-07-02T05:47:15;5.38;;;1.33;;
59649;SDS011;46162;57.568;25.814;2023-07-02T05:49:44;4.97;;;1.10;;
59649;SDS011;46162;57.568;25.814;2023-07-02T05:52:13;5.38;;;0.90;;
59649;SDS011;46162;57.568;25.814;2023-07-02T05:54:43;4.78;;;1.23;;
59649;SDS011;46162;57.568;25.814;2023-07-02T05:57:12;5.40;;;1.02;;
59649;SDS011;46162;57.568;25.814;2023-07-02T05:59:40;8.55;;;1.23;;
59649;SDS011;46162;57.568;25.814;2023-07-02T06:02:09;7.38;;;1.13;;
59649;SDS011;46162;57.568;25.814;2023-07-02T06:04:38;5.45;;;1.25;;
59649;SDS011;46162;57.568;25.814;2023-07-02T06:07:06;5.70;;;1.05;;
59649;SDS011;46162;57.568;25.814;2023-07-02T06:09:35;5.35;;;1.30;;
59649;SDS011;46162;57.568;25.814;2023-07-02T06:12:05;5.47;;;1.20;;
59649;SDS011;46162;57.568;25.814;2023-07-02T06:17:03;6.32;;;1.08;;
59649;SDS011;46162;57.568;25.814;2023-07-02T06:19:37;4.60;;;1.60;;
59649;SDS011;46162;57.568;25.814;2023-07-02T06:22:05;6.85;;;0.95;;
59649;SDS011;46162;57.568;25.814;2023-07-02T06:24:34;3.67;;;1.10;;
59649;SDS011;46162;57.568;25.814;2023-07-02T06:27:03;5.82;;;1.20;;
59649;SDS011;46162;57.568;25.814;2023-07-02T06:29:33;6.05;;;0.88;;
59649;SDS011;46162;57.568;25.814;2023-07-02T06:32:02;6.25;;;1.23;;
59649;SDS011;46162;57.568;25.814;2023-07-02T06:34:31;6.35;;;1.17;;
59649;SDS011;46162;57.568;25.814;2023-07-02T06:37:00;4.47;;;1.10;;
59649;SDS011;46162;57.568;25.814;2023-07-02T06:39:29;5.03;;;1.20;;
59649;SDS011;46162;57.568;25.814;2023-07-02T06:41:58;5.80;;;0.90;;
59649;SDS011;46162;57.568;25.814;2023-07-02T06:44:29;5.13;;;1.10;;
59649;SDS011;46162;57.568;25.814;2023-07-02T06:46:59;8.00;;;0.98;;
59649;SDS011;46162;57.568;25.814;2023-07-02T06:49:28;5.75;;;1.67;;
59649;SDS011;46162;57.568;25.814;2023-07-02T06:51:56;6.05;;;1.23;;
59649;SDS011;46162;57.568;25.814;2023-07-02T06:54:26;7.00;;;0.90;;
59649;SDS011;46162;57.568;25.814;2023-07-02T06:56:55;6.80;;;1.40;;
59649;SDS011;46162;57.568;25.814;2023-07-02T06:59:24;5.90;;;1.58;;
59649;SDS011;46162;57.568;25.814;2023-07-02T07:01:53;3.67;;;1.02;;
59649;SDS011;46162;57.568;25.814;2023-07-02T07:04:23;4.70;;;1.27;;
59649;SDS011;46162;57.568;25.814;2023-07-02T07:06:52;7.88;;;1.73;;
59649;SDS011;46162;57.568;25.814;2023-07-02T07:09:22;6.77;;;1.63;;
59649;SDS011;46162;57.568;25.814;2023-07-02T07:11:50;7.40;;;1.67;;
59649;SDS011;46162;57.568;25.814;2023-07-02T07:14:19;8.93;;;1.75;;
59649;SDS011;46162;57.568;25.814;2023-07-02T07:16:48;6.75;;;1.38;;
59649;SDS011;46162;57.568;25.814;2023-07-02T07:19:17;5.95;;;1.38;;
59649;SDS011;46162;57.568;25.814;2023-07-02T07:21:47;6.18;;;2.03;;
59649;SDS011;46162;57.568;25.814;2023-07-02T07:24:15;8.10;;;1.70;;
59649;SDS011;46162;57.568;25.814;2023-07-02T07:26:44;5.72;;;1.65;;
59649;SDS011;46162;57.568;25.814;2023-07-02T07:29:13;6.00;;;1.92;;
59649;SDS011;46162;57.568;25.814;2023-07-02T07:31:42;8.82;;;2.17;;
59649;SDS011;46162;57.568;25.814;2023-07-02T07:34:13;5.03;;;1.75;;
59649;SDS011;46162;57.568;25.814;2023-07-02T07:36:42;5.95;;;1.52;;
59649;SDS011;46162;57.568;25.814;2023-07-02T07:39:12;5.43;;;2.03;;
59649;SDS011;46162;57.568;25.814;2023-07-02T07:41:41;6.80;;;1.95;;
59649;SDS011;46162;57.568;25.814;2023-07-02T07:44:10;9.35;;;1.50;;
59649;SDS011;46162;57.568;25.814;2023-07-02T07:46:38;5.78;;;1.80;;
59649;SDS011;46162;57.568;25.814;2023-07-02T07:49:07;7.43;;;1.90;;
59649;SDS011;46162;57.568;25.814;2023-07-02T07:51:36;4.55;;;1.50;;
59649;SDS011;46162;57.568;25.814;2023-07-02T07:54:04;7.93;;;1.55;;
59649;SDS011;46162;57.568;25.814;2023-07-02T07:56:34;6.22;;;1.60;;
59649;SDS011;46162;57.568;25.814;2023-07-02T07:59:03;6.00;;;1.45;;
59649;SDS011;46162;57.568;25.814;2023-07-02T08:01:32;5.55;;;1.50;;
59649;SDS011;46162;57.568;25.814;2023-07-02T08:04:01;6.43;;;1.60;;
59649;SDS011;46162;57.568;25.814;2023-07-02T08:06:30;9.48;;;1.45;;
59649;SDS011;46162;57.568;25.814;2023-07-02T08:08:58;8.35;;;1.60;;
59649;SDS011;46162;57.568;25.814;2023-07-02T08:11:27;5.47;;;1.65;;
59649;SDS011;46162;57.568;25.814;2023-07-02T08:13:57;4.88;;;1.30;;
59649;SDS011;46162;57.568;25.814;2023-07-02T08:16:26;5.40;;;1.60;;
59649;SDS011;46162;57.568;25.814;2023-07-02T08:18:55;7.28;;;1.58;;
59649;SDS011;46162;57.568;25.814;2023-07-02T08:21:23;7.22;;;1.50;;
59649;SDS011;46162;57.568;25.814;2023-07-02T08:23:52;11.93;;;1.83;;
59649;SDS011;46162;57.568;25.814;2023-07-02T08:26:21;7.50;;;2.03;;
59649;SDS011;46162;57.568;25.814;2023-07-02T08:28:49;5.22;;;1.75;;
59649;SDS011;46162;57.568;25.814;2023-07-02T08:31:19;7.75;;;2.03;;
59649;SDS011;46162;57.568;25.814;2023-07-02T08:33:50;6.78;;;2.25;;
59649;SDS011;46162;57.568;25.814;2023-07-02T08:36:18;7.80;;;2.10;;
59649;SDS011;46162;57.568;25.814;2023-07-02T08:38:47;7.45;;;2.42;;
59649;SDS011;46162;57.568;25.814;2023-07-02T08:41:15;7.90;;;2.08;;
59649;SDS011;46162;57.568;25.814;2023-07-02T08:43:44;7.72;;;2.67;;
59649;SDS011;46162;57.568;25.814;2023-07-02T08:46:15;5.43;;;2.10;;
59649;SDS011;46162;57.568;25.814;2023-07-02T08:48:46;9.82;;;2.80;;
59649;SDS011;46162;57.568;25.814;2023-07-02T08:51:15;10.77;;;2.55;;
59649;SDS011;46162;57.568;25.814;2023-07-02T08:53:47;8.45;;;2.55;;
59649;SDS011;46162;57.568;25.814;2023-07-02T08:56:15;9.85;;;2.63;;
59649;SDS011;46162;57.568;25.814;2023-07-02T08:58:44;5.32;;;2.38;;
59649;SDS011;46162;57.568;25.814;2023-07-02T09:01:13;7.50;;;2.58;;
59649;SDS011;46162;57.568;25.814;2023-07-02T09:03:43;8.77;;;2.70;;
59649;SDS011;46162;57.568;25.814;2023-07-02T09:06:13;13.57;;;3.00;;
59649;SDS011;46162;57.568;25.814;2023-07-02T09:08:45;8.52;;;3.00;;
59649;SDS011;46162;57.568;25.814;2023-07-02T09:11:14;7.75;;;2.72;;
59649;SDS011;46162;57.568;25.814;2023-07-02T09:16:26;7.68;;;2.63;;
59649;SDS011;46162;57.568;25.814;2023-07-02T09:18:57;6.57;;;2.45;;
59649;SDS011;46162;57.568;25.814;2023-07-02T09:21:28;4.83;;;2.30;;
59649;SDS011;46162;57.568;25.814;2023-07-02T09:24:15;4.95;;;2.25;;
59649;SDS011;46162;57.568;25.814;2023-07-02T09:26:45;6.55;;;2.60;;
59649;SDS011;46162;57.568;25.814;2023-07-02T09:31:46;9.10;;;2.40;;
59649;SDS011;46162;57.568;25.814;2023-07-02T09:34:35;6.45;;;2.53;;
59649;SDS011;46162;57.568;25.814;2023-07-02T09:37:06;6.28;;;2.25;;
59649;SDS011;46162;57.568;25.814;2023-07-02T09:39:35;6.65;;;2.30;;
59649;SDS011;46162;57.568;25.814;2023-07-02T09:42:08;7.38;;;2.85;;
59649;SDS011;46162;57.568;25.814;2023-07-02T09:44:38;10.77;;;2.72;;
59649;SDS011;46162;57.568;25.814;2023-07-02T09:47:10;6.78;;;2.67;;
59649;SDS011;46162;57.568;25.814;2023-07-02T09:49:41;9.02;;;2.80;;
59649;SDS011;46162;57.568;25.814;2023-07-02T09:52:13;7.22;;;2.45;;
59649;SDS011;46162;57.568;25.814;2023-07-02T09:54:42;9.38;;;2.20;;
59649;SDS011;46162;57.568;25.814;2023-07-02T09:57:10;7.53;;;2.38;;
59649;SDS011;46162;57.568;25.814;2023-07-02T09:59:40;14.68;;;2.70;;
59649;SDS011;46162;57.568;25.814;2023-07-02T10:02:09;11.90;;;2.65;;
59649;SDS011;46162;57.568;25.814;2023-07-02T10:04:39;5.37;;;2.37;;
59649;SDS011;46162;57.568;25.814;2023-07-02T10:07:08;8.13;;;2.83;;
59649;SDS011;46162;57.568;25.814;2023-07-02T10:09:40;9.40;;;2.63;;
59649;SDS011;46162;57.568;25.814;2023-07-02T10:12:16;9.68;;;2.65;;
59649;SDS011;46162;57.568;25.814;2023-07-02T10:14:46;8.73;;;2.10;;
59649;SDS011;46162;57.568;25.814;2023-07-02T10:17:28;7.07;;;2.53;;
59649;SDS011;46162;57.568;25.814;2023-07-02T10:20:00;5.32;;;2.17;;
59649;SDS011;46162;57.568;25.814;2023-07-02T10:22:41;8.60;;;2.55;;
59649;SDS011;46162;57.568;25.814;2023-07-02T10:25:12;7.00;;;2.17;;
59649;SDS011;46162;57.568;25.814;2023-07-02T10:27:52;8.48;;;2.15;;
59649;SDS011;46162;57.568;25.814;2023-07-02T10:30:30;7.85;;;2.53;;
59649;SDS011;46162;57.568;25.814;2023-07-02T10:33:09;5.32;;;2.10;;
59649;SDS011;46162;57.568;25.814;2023-07-02T10:35:39;5.82;;;2.47;;
59649;SDS011;46162;57.568;25.814;2023-07-02T10:38:13;5.93;;;2.28;;
59649;SDS011;46162;57.568;25.814;2023-07-02T10:40:44;6.35;;;2.03;;
59649;SDS011;46162;57.568;25.814;2023-07-02T10:45:41;4.38;;;1.88;;
59649;SDS011;46162;57.568;25.814;2023-07-02T10:48:10;5.82;;;2.35;;
59649;SDS011;46162;57.568;25.814;2023-07-02T10:50:39;3.70;;;1.85;;
59649;SDS011;46162;57.568;25.814;2023-07-02T10:53:14;6.07;;;2.47;;
59649;SDS011;46162;57.568;25.814;2023-07-02T10:55:45;6.75;;;2.45;;
59649;SDS011;46162;57.568;25.814;2023-07-02T11:00:45;10.13;;;2.33;;
59649;SDS011;46162;57.568;25.814;2023-07-02T11:03:16;5.75;;;2.15;;
59649;SDS011;46162;57.568;25.814;2023-07-02T11:05:46;7.57;;;2.47;;
59649;SDS011;46162;57.568;25.814;2023-07-02T11:08:16;13.05;;;2.33;;
59649;SDS011;46162;57.568;25.814;2023-07-02T11:10:48;7.07;;;2.00;;
59649;SDS011;46162;57.568;25.814;2023-07-02T11:13:18;7.20;;;2.42;;
59649;SDS011;46162;57.568;25.814;2023-07-02T11:15:47;9.27;;;2.28;;
59649;SDS011;46162;57.568;25.814;2023-07-02T11:18:17;5.55;;;1.85;;
59649;SDS011;46162;57.568;25.814;2023-07-02T11:20:48;7.13;;;2.38;;
59649;SDS011;46162;57.568;25.814;2023-07-02T11:23:17;4.00;;;1.95;;
59649;SDS011;46162;57.568;25.814;2023-07-02T11:26:00;7.18;;;2.15;;
59649;SDS011;46162;57.568;25.814;2023-07-02T11:28:30;7.40;;;2.40;;
59649;SDS011;46162;57.568;25.814;2023-07-02T11:31:04;5.45;;;2.17;;
59649;SDS011;46162;57.568;25.814;2023-07-02T11:33:35;4.38;;;1.90;;
59649;SDS011;46162;57.568;25.814;2023-07-02T11:36:04;5.60;;;2.17;;
59649;SDS011;46162;57.568;25.814;2023-07-02T11:38:33;6.00;;;2.05;;
59649;SDS011;46162;57.568;25.814;2023-07-02T11:41:05;4.30;;;1.92;;
59649;SDS011;46162;57.568;25.814;2023-07-02T11:43:34;5.35;;;2.33;;
59649;SDS011;46162;57.568;25.814;2023-07-02T11:46:02;8.45;;;2.40;;
59649;SDS011;46162;57.568;25.814;2023-07-02T11:48:31;7.78;;;1.75;;
59649;SDS011;46162;57.568;25.814;2023-07-02T11:51:00;7.25;;;1.88;;
59649;SDS011;46162;57.568;25.814;2023-07-02T11:53:28;6.88;;;2.00;;
59649;SDS011;46162;57.568;25.814;2023-07-02T11:55:57;4.13;;;2.00;;
59649;SDS011;46162;57.568;25.814;2023-07-02T11:58:27;12.77;;;2.45;;
59649;SDS011;46162;57.568;25.814;2023-07-02T12:00:56;8.25;;;2.17;;
59649;SDS011;46162;57.568;25.814;2023-07-02T12:03:25;8.13;;;2.40;;
59649;SDS011;46162;57.568;25.814;2023-07-02T12:05:53;6.47;;;2.17;;
59649;SDS011;46162;57.568;25.814;2023-07-02T12:08:22;7.50;;;3.40;;
59649;SDS011;46162;57.568;25.814;2023-07-02T12:10:51;8.07;;;2.33;;
59649;SDS011;46162;57.568;25.814;2023-07-02T12:13:19;15.63;;;3.05;;
59649;SDS011;46162;57.568;25.814;2023-07-02T12:15:50;7.40;;;2.38;;
59649;SDS011;46162;57.568;25.814;2023-07-02T12:18:18;6.30;;;2.15;;
59649;SDS011;46162;57.568;25.814;2023-07-02T12:20:47;7.72;;;2.10;;
59649;SDS011;46162;57.568;25.814;2023-07-02T12:23:15;8.55;;;2.85;;
59649;SDS011;46162;57.568;25.814;2023-07-02T12:25:44;5.90;;;2.00;;
59649;SDS011;46162;57.568;25.814;2023-07-02T12:28:14;6.22;;;2.15;;
59649;SDS011;46162;57.568;25.814;2023-07-02T12:30:42;6.50;;;2.45;;
59649;SDS011;46162;57.568;25.814;2023-07-02T12:33:13;6.00;;;2.53;;
59649;SDS011;46162;57.568;25.814;2023-07-02T12:35:45;7.45;;;2.53;;
59649;SDS011;46162;57.568;25.814;2023-07-02T12:38:14;7.63;;;2.00;;
59649;SDS011;46162;57.568;25.814;2023-07-02T12:40:43;7.88;;;1.90;;
59649;SDS011;46162;57.568;25.814;2023-07-02T12:43:11;6.57;;;2.08;;
59649;SDS011;46162;57.568;25.814;2023-07-02T12:45:40;6.00;;;1.48;;
59649;SDS011;46162;57.568;25.814;2023-07-02T12:48:08;5.57;;;1.95;;
59649;SDS011;46162;57.568;25.814;2023-07-02T12:50:38;7.22;;;2.25;;
59649;SDS011;46162;57.568;25.814;2023-07-02T12:53:07;7.88;;;1.75;;
59649;SDS011;46162;57.568;25.814;2023-07-02T12:55:36;9.02;;;2.15;;
59649;SDS011;46162;57.568;25.814;2023-07-02T12:58:04;6.57;;;1.70;;
59649;SDS011;46162;57.568;25.814;2023-07-02T13:00:33;5.75;;;1.80;;
59649;SDS011;46162;57.568;25.814;2023-07-02T13:03:02;4.65;;;1.50;;
59649;SDS011;46162;57.568;25.814;2023-07-02T13:05:31;5.15;;;1.98;;
59649;SDS011;46162;57.568;25.814;2023-07-02T13:08:02;6.05;;;2.40;;
59649;SDS011;46162;57.568;25.814;2023-07-02T13:10:31;6.68;;;1.83;;
59649;SDS011;46162;57.568;25.814;2023-07-02T13:13:02;6.88;;;1.30;;
59649;SDS011;46162;57.568;25.814;2023-07-02T13:15:48;4.75;;;2.17;;
59649;SDS011;46162;57.568;25.814;2023-07-02T13:18:17;5.43;;;2.03;;
59649;SDS011;46162;57.568;25.814;2023-07-02T13:20:46;7.03;;;2.30;;
59649;SDS011;46162;57.568;25.814;2023-07-02T13:23:16;9.48;;;2.78;;
59649;SDS011;46162;57.568;25.814;2023-07-02T13:25:45;5.57;;;1.85;;
59649;SDS011;46162;57.568;25.814;2023-07-02T13:28:14;8.55;;;2.22;;
59649;SDS011;46162;57.568;25.814;2023-07-02T13:30:43;3.83;;;1.70;;
59649;SDS011;46162;57.568;25.814;2023-07-02T13:33:11;4.38;;;1.90;;
59649;SDS011;46162;57.568;25.814;2023-07-02T13:35:40;5.95;;;2.40;;
59649;SDS011;46162;57.568;25.814;2023-07-02T13:38:10;5.07;;;1.92;;
59649;SDS011;46162;57.568;25.814;2023-07-02T13:40:40;6.13;;;2.25;;
59649;SDS011;46162;57.568;25.814;2023-07-02T13:43:09;8.25;;;2.63;;
59649;SDS011;46162;57.568;25.814;2023-07-02T13:45:38;5.30;;;2.58;;
59649;SDS011;46162;57.568;25.814;2023-07-02T13:48:06;7.57;;;2.17;;
59649;SDS011;46162;57.568;25.814;2023-07-02T13:50:35;6.15;;;2.65;;
59649;SDS011;46162;57.568;25.814;2023-07-02T13:53:03;6.55;;;2.15;;
59649;SDS011;46162;57.568;25.814;2023-07-02T13:55:32;7.75;;;3.03;;
59649;SDS011;46162;57.568;25.814;2023-07-02T13:58:02;5.28;;;2.70;;
59649;SDS011;46162;57.568;25.814;2023-07-02T14:00:32;5.15;;;2.30;;
59649;SDS011;46162;57.568;25.814;2023-07-02T14:03:01;6.75;;;2.42;;
59649;SDS011;46162;57.568;25.814;2023-07-02T14:05:30;6.07;;;2.80;;
59649;SDS011;46162;57.568;25.814;2023-07-02T14:07:59;5.03;;;2.22;;
59649;SDS011;46162;57.568;25.814;2023-07-02T14:10:27;7.40;;;2.70;;
59649;SDS011;46162;57.568;25.814;2023-07-02T14:12:56;9.77;;;2.90;;
59649;SDS011;46162;57.568;25.814;2023-07-02T14:15:25;5.75;;;2.78;;
59649;SDS011;46162;57.568;25.814;2023-07-02T14:17:55;12.57;;;3.28;;
59649;SDS011;46162;57.568;25.814;2023-07-02T14:20:24;9.20;;;3.47;;
59649;SDS011;46162;57.568;25.814;2023-07-02T14:22:53;10.77;;;3.33;;
59649;SDS011;46162;57.568;25.814;2023-07-02T14:25:21;12.75;;;3.85;;
59649;SDS011;46162;57.568;25.814;2023-07-02T14:28:07;12.95;;;4.10;;
59649;SDS011;46162;57.568;25.814;2023-07-02T14:30:36;14.52;;;4.45;;
59649;SDS011;46162;57.568;25.814;2023-07-02T14:33:06;15.38;;;5.03;;
59649;SDS011;46162;57.568;25.814;2023-07-02T14:35:35;15.18;;;4.95;;
59649;SDS011;46162;57.568;25.814;2023-07-02T14:38:04;15.60;;;4.93;;
59649;SDS011;46162;57.568;25.814;2023-07-02T14:40:33;20.83;;;4.97;;
59649;SDS011;46162;57.568;25.814;2023-07-02T14:43:02;15.25;;;3.92;;
59649;SDS011;46162;57.568;25.814;2023-07-02T14:45:31;10.00;;;3.90;;
59649;SDS011;46162;57.568;25.814;2023-07-02T14:48:00;12.77;;;2.90;;
59649;SDS011;46162;57.568;25.814;2023-07-02T14:50:31;18.00;;;2.47;;
59649;SDS011;46162;57.568;25.814;2023-07-02T14:52:59;10.88;;;1.42;;
59649;SDS011;46162;57.568;25.814;2023-07-02T14:55:27;11.73;;;1.17;;
59649;SDS011;46162;57.568;25.814;2023-07-02T14:57:56;30.83;;;2.17;;
59649;SDS011;46162;57.568;25.814;2023-07-02T15:00:24;9.65;;;1.55;;
59649;SDS011;46162;57.568;25.814;2023-07-02T15:02:53;12.48;;;1.52;;
59649;SDS011;46162;57.568;25.814;2023-07-02T15:05:22;8.63;;;1.30;;